sensor_id;sensor_type;location;lat;lon;timestamp;temperature;humidity
42031;DHT22;27709;52.036;5.906;2023-11-21T00:00:38;9.80;99.90
42031;DHT22;27709;52.036;5.906;2023-11-21T00:03:03;9.80;99.90
42031;DHT22;27709;52.036;5.906;2023-11-21T00:05:29;9.80;99.90
42031;DHT22;27709;52.036;5.906;2023-11-21T00:07:55;9.80;99.90
42031;DHT22;27709;52.036;5.906;2023-11-21T00:10:20;9.80;99.90
42031;DHT22;27709;52.036;5.906;2023-11-21T00:12:46;9.80;99.90
42031;DHT22;27709;52.036;5.906;2023-11-21T00:15:14;9.80;99.90
42031;DHT22;27709;52.036;5.906;2023-11-21T00:17:39;9.70;99.90
42031;DHT22;27709;52.036;5.906;2023-11-21T00:20:06;9.70;99.90
42031;DHT22;27709;52.036;5.906;2023-11-21T00:22:36;9.70;99.90
42031;DHT22;27709;52.036;5.906;2023-11-21T00:25:02;9.70;99.90
42031;DHT22;27709;52.036;5.906;2023-11-21T00:27:29;9.70;99.90
42031;DHT22;27709;52.036;5.906;2023-11-21T00:29:55;9.70;99.90
42031;DHT22;27709;52.036;5.906;2023-11-21T00:32:20;9.70;99.90
42031;DHT22;27709;52.036;5.906;2023-11-21T00:34:46;9.70;99.90
42031;DHT22;27709;52.036;5.906;2023-11-21T00:37:11;9.70;99.90
42031;DHT22;27709;52.036;5.906;2023-11-21T00:39:37;9.80;99.90
42031;DHT22;27709;52.036;5.906;2023-11-21T00:42:02;9.70;99.90
42031;DHT22;27709;52.036;5.906;2023-11-21T00:44:30;9.70;99.90
42031;DHT22;27709;52.036;5.906;2023-11-21T00:46:56;9.70;99.90
42031;DHT22;27709;52.036;5.906;2023-11-21T00:49:21;9.70;99.90
42031;DHT22;27709;52.036;5.906;2023-11-21T00:51:47;9.70;99.90
42031;DHT22;27709;52.036;5.906;2023-11-21T00:54:12;9.70;99.90
42031;DHT22;27709;52.036;5.906;2023-11-21T00:56:38;9.70;99.90
42031;DHT22;27709;52.036;5.906;2023-11-21T00:59:05;9.70;99.90
42031;DHT22;27709;52.036;5.906;2023-11-21T01:01:30;9.80;99.90
42031;DHT22;27709;52.036;5.906;2023-11-21T01:03:56;9.80;99.90
42031;DHT22;27709;52.036;5.906;2023-11-21T01:06:23;9.90;99.90
42031;DHT22;27709;52.036;5.906;2023-11-21T01:08:48;9.90;99.90
42031;DHT22;27709;52.036;5.906;2023-11-21T01:11:14;9.90;99.90
42031;DHT22;27709;52.036;5.906;2023-11-21T01:13:40;9.90;99.90
42031;DHT22;27709;52.036;5.906;2023-11-21T01:16:06;9.90;99.90
42031;DHT22;27709;52.036;5.906;2023-11-21T01:18:32;9.90;99.90
42031;DHT22;27709;52.036;5.906;2023-11-21T01:20:58;9.90;99.90
42031;DHT22;27709;52.036;5.906;2023-11-21T01:23:24;9.90;99.90
42031;DHT22;27709;52.036;5.906;2023-11-21T01:25:50;9.90;99.90
42031;DHT22;27709;52.036;5.906;2023-11-21T01:28:18;9.80;99.90
42031;DHT22;27709;52.036;5.906;2023-11-21T01:30:45;9.80;99.90
42031;DHT22;27709;52.036;5.906;2023-11-21T01:33:11;9.90;99.90
42031;DHT22;27709;52.036;5.906;2023-11-21T01:35:36;9.80;99.90
42031;DHT22;27709;52.036;5.906;2023-11-21T01:38:02;9.90;99.90
42031;DHT22;27709;52.036;5.906;2023-11-21T01:40:29;9.90;99.90
42031;DHT22;27709;52.036;5.906;2023-11-21T01:42:55;9.90;99.90
42031;DHT22;27709;52.036;5.906;2023-11-21T01:45:21;9.80;99.90
42031;DHT22;27709;52.036;5.906;2023-11-21T01:47:47;9.90;99.90
42031;DHT22;27709;52.036;5.906;2023-11-21T01:50:15;9.90;99.90
42031;DHT22;27709;52.036;5.906;2023-11-21T01:52:44;9.90;99.90
42031;DHT22;27709;52.036;5.906;2023-11-21T01:55:10;9.90;99.90
42031;DHT22;27709;52.036;5.906;2023-11-21T01:57:37;9.90;99.90
42031;DHT22;27709;52.036;5.906;2023-11-21T02:00:04;9.90;99.90
42031;DHT22;27709;52.036;5.906;2023-11-21T02:02:42;9.90;99.90
42031;DHT22;27709;52.036;5.906;2023-11-21T02:05:07;9.90;99.90
42031;DHT22;27709;52.036;5.906;2023-11-21T02:07:34;9.90;99.90
42031;DHT22;27709;52.036;5.906;2023-11-21T02:10:00;9.90;99.90
42031;DHT22;27709;52.036;5.906;2023-11-21T02:12:26;9.90;99.90
42031;DHT22;27709;52.036;5.906;2023-11-21T02:14:53;9.90;99.90
42031;DHT22;27709;52.036;5.906;2023-11-21T02:17:18;9.90;99.90
42031;DHT22;27709;52.036;5.906;2023-11-21T02:19:44;9.90;99.90
42031;DHT22;27709;52.036;5.906;2023-11-21T02:22:10;9.90;99.90
42031;DHT22;27709;52.036;5.906;2023-11-21T02:24:37;9.90;99.90
42031;DHT22;27709;52.036;5.906;2023-11-21T02:27:02;9.90;99.90
42031;DHT22;27709;52.036;5.906;2023-11-21T02:29:28;10.00;99.90
42031;DHT22;27709;52.036;5.906;2023-11-21T02:31:54;10.00;99.90
42031;DHT22;27709;52.036;5.906;2023-11-21T02:34:21;10.00;99.90
42031;DHT22;27709;52.036;5.906;2023-11-21T02:36:47;10.00;99.90
42031;DHT22;27709;52.036;5.906;2023-11-21T02:39:15;10.00;99.90
42031;DHT22;27709;52.036;5.906;2023-11-21T02:41:42;10.00;99.90
42031;DHT22;27709;52.036;5.906;2023-11-21T02:44:07;10.00;99.90
42031;DHT22;27709;52.036;5.906;2023-11-21T02:46:34;10.10;99.90
42031;DHT22;27709;52.036;5.906;2023-11-21T02:49:03;10.10;99.90
42031;DHT22;27709;52.036;5.906;2023-11-21T02:51:29;10.10;99.90
42031;DHT22;27709;52.036;5.906;2023-11-21T02:53:55;10.10;99.90
42031;DHT22;27709;52.036;5.906;2023-11-21T02:56:26;10.10;99.90
42031;DHT22;27709;52.036;5.906;2023-11-21T02:58:55;10.10;99.90
42031;DHT22;27709;52.036;5.906;2023-11-21T03:01:20;10.10;99.90
42031;DHT22;27709;52.036;5.906;2023-11-21T03:03:46;10.10;99.90
42031;DHT22;27709;52.036;5.906;2023-11-21T03:06:15;10.10;99.90
42031;DHT22;27709;52.036;5.906;2023-11-21T03:08:41;10.10;99.90
42031;DHT22;27709;52.036;5.906;2023-11-21T03:11:07;10.10;99.90
42031;DHT22;27709;52.036;5.906;2023-11-21T03:13:33;10.10;99.90
42031;DHT22;27709;52.036;5.906;2023-11-21T03:15:59;10.10;99.90
42031;DHT22;27709;52.036;5.906;2023-11-21T03:18:24;10.10;99.90
42031;DHT22;27709;52.036;5.906;2023-11-21T03:20:53;10.10;99.90
42031;DHT22;27709;52.036;5.906;2023-11-21T03:23:19;10.10;99.90
42031;DHT22;27709;52.036;5.906;2023-11-21T03:25:44;10.10;99.90
42031;DHT22;27709;52.036;5.906;2023-11-21T03:28:10;10.10;99.90
42031;DHT22;27709;52.036;5.906;2023-11-21T03:30:36;10.10;99.90
42031;DHT22;27709;52.036;5.906;2023-11-21T03:33:01;10.20;99.90
42031;DHT22;27709;52.036;5.906;2023-11-21T03:35:27;10.20;99.90
42031;DHT22;27709;52.036;5.906;2023-11-21T03:37:53;10.20;99.90
42031;DHT22;27709;52.036;5.906;2023-11-21T03:40:18;10.20;99.90
42031;DHT22;27709;52.036;5.906;2023-11-21T03:42:44;10.20;99.90
42031;DHT22;27709;52.036;5.906;2023-11-21T03:45:10;10.20;99.90
42031;DHT22;27709;52.036;5.906;2023-11-21T03:47:37;10.20;99.90
42031;DHT22;27709;52.036;5.906;2023-11-21T03:50:03;10.20;99.90
42031;DHT22;27709;52.036;5.906;2023-11-21T03:52:29;10.20;99.90
42031;DHT22;27709;52.036;5.906;2023-11-21T03:54:55;10.30;99.90
42031;DHT22;27709;52.036;5.906;2023-11-21T03:57:21;10.30;99.90
42031;DHT22;27709;52.036;5.906;2023-11-21T03:59:47;10.30;99.90
42031;DHT22;27709;52.036;5.906;2023-11-21T04:02:12;10.40;99.90
42031;DHT22;27709;52.036;5.906;2023-11-21T04:04:38;10.40;99.90
42031;DHT22;27709;52.036;5.906;2023-11-21T04:07:04;10.30;99.90
42031;DHT22;27709;52.036;5.906;2023-11-21T04:09:30;10.30;99.90
42031;DHT22;27709;52.036;5.906;2023-11-21T04:11:56;10.30;99.90
42031;DHT22;27709;52.036;5.906;2023-11-21T04:14:23;10.30;99.90
42031;DHT22;27709;52.036;5.906;2023-11-21T04:16:48;10.30;99.90
42031;DHT22;27709;52.036;5.906;2023-11-21T04:19:15;10.30;99.90
42031;DHT22;27709;52.036;5.906;2023-11-21T04:21:41;10.40;99.90
42031;DHT22;27709;52.036;5.906;2023-11-21T04:24:07;10.40;99.90
42031;DHT22;27709;52.036;5.906;2023-11-21T04:26:33;10.40;99.90
42031;DHT22;27709;52.036;5.906;2023-11-21T04:28:58;10.40;99.90
42031;DHT22;27709;52.036;5.906;2023-11-21T04:31:24;10.40;99.90
42031;DHT22;27709;52.036;5.906;2023-11-21T04:33:49;10.40;99.90
42031;DHT22;27709;52.036;5.906;2023-11-21T04:36:15;10.40;99.90
42031;DHT22;27709;52.036;5.906;2023-11-21T04:38:40;10.50;99.90
42031;DHT22;27709;52.036;5.906;2023-11-21T04:41:06;10.50;99.90
42031;DHT22;27709;52.036;5.906;2023-11-21T04:43:32;10.50;99.90
42031;DHT22;27709;52.036;5.906;2023-11-21T04:45:57;10.50;99.90
42031;DHT22;27709;52.036;5.906;2023-11-21T04:48:23;10.50;99.90
42031;DHT22;27709;52.036;5.906;2023-11-21T04:50:48;10.50;99.90
42031;DHT22;27709;52.036;5.906;2023-11-21T04:53:14;10.50;99.90
42031;DHT22;27709;52.036;5.906;2023-11-21T04:55:43;10.50;99.90
42031;DHT22;27709;52.036;5.906;2023-11-21T04:58:09;10.50;99.90
42031;DHT22;27709;52.036;5.906;2023-11-21T05:00:35;10.50;99.90
42031;DHT22;27709;52.036;5.906;2023-11-21T05:03:02;10.50;99.90
42031;DHT22;27709;52.036;5.906;2023-11-21T05:05:28;10.50;99.90
42031;DHT22;27709;52.036;5.906;2023-11-21T05:07:55;10.50;99.90
42031;DHT22;27709;52.036;5.906;2023-11-21T05:10:21;10.60;99.90
42031;DHT22;27709;52.036;5.906;2023-11-21T05:12:48;10.60;99.90
42031;DHT22;27709;52.036;5.906;2023-11-21T05:15:15;10.60;99.90
42031;DHT22;27709;52.036;5.906;2023-11-21T05:17:42;10.60;99.90
42031;DHT22;27709;52.036;5.906;2023-11-21T05:20:13;10.60;99.90
42031;DHT22;27709;52.036;5.906;2023-11-21T05:22:40;10.70;99.90
42031;DHT22;27709;52.036;5.906;2023-11-21T05:25:07;10.70;99.90
42031;DHT22;27709;52.036;5.906;2023-11-21T05:27:33;10.70;99.90
42031;DHT22;27709;52.036;5.906;2023-11-21T05:30:02;10.80;99.90
42031;DHT22;27709;52.036;5.906;2023-11-21T05:32:30;10.80;99.90
42031;DHT22;27709;52.036;5.906;2023-11-21T05:34:56;10.80;99.90
42031;DHT22;27709;52.036;5.906;2023-11-21T05:37:23;10.80;99.90
42031;DHT22;27709;52.036;5.906;2023-11-21T05:39:49;10.80;99.90
42031;DHT22;27709;52.036;5.906;2023-11-21T05:42:15;10.90;99.90
42031;DHT22;27709;52.036;5.906;2023-11-21T05:44:42;10.90;99.90
42031;DHT22;27709;52.036;5.906;2023-11-21T05:47:09;10.90;99.90
42031;DHT22;27709;52.036;5.906;2023-11-21T05:49:35;11.00;99.90
42031;DHT22;27709;52.036;5.906;2023-11-21T05:52:00;10.90;99.90
42031;DHT22;27709;52.036;5.906;2023-11-21T05:54:26;11.00;99.90
42031;DHT22;27709;52.036;5.906;2023-11-21T05:56:52;11.00;99.90
42031;DHT22;27709;52.036;5.906;2023-11-21T05:59:18;11.00;99.90
42031;DHT22;27709;52.036;5.906;2023-11-21T06:01:43;11.00;99.90
42031;DHT22;27709;52.036;5.906;2023-11-21T06:04:11;11.00;99.90
42031;DHT22;27709;52.036;5.906;2023-11-21T06:06:38;11.10;99.90
42031;DHT22;27709;52.036;5.906;2023-11-21T06:09:04;11.10;99.90
42031;DHT22;27709;52.036;5.906;2023-11-21T06:11:31;11.10;99.90
42031;DHT22;27709;52.036;5.906;2023-11-21T06:13:57;11.10;99.90
42031;DHT22;27709;52.036;5.906;2023-11-21T06:16:23;11.20;99.90
42031;DHT22;27709;52.036;5.906;2023-11-21T06:18:49;11.20;99.90
42031;DHT22;27709;52.036;5.906;2023-11-21T06:21:15;11.10;99.90
42031;DHT22;27709;52.036;5.906;2023-11-21T06:23:42;11.20;99.90
42031;DHT22;27709;52.036;5.906;2023-11-21T06:26:07;11.10;99.90
42031;DHT22;27709;52.036;5.906;2023-11-21T06:28:34;11.10;99.90
42031;DHT22;27709;52.036;5.906;2023-11-21T06:31:01;11.20;99.90
42031;DHT22;27709;52.036;5.906;2023-11-21T06:33:31;11.10;99.90
42031;DHT22;27709;52.036;5.906;2023-11-21T06:35:56;11.20;99.90
42031;DHT22;27709;52.036;5.906;2023-11-21T06:38:22;11.20;99.90
42031;DHT22;27709;52.036;5.906;2023-11-21T06:40:48;11.20;99.90
42031;DHT22;27709;52.036;5.906;2023-11-21T06:43:13;11.20;99.90
42031;DHT22;27709;52.036;5.906;2023-11-21T06:45:39;11.30;99.90
42031;DHT22;27709;52.036;5.906;2023-11-21T06:48:05;11.30;99.90
42031;DHT22;27709;52.036;5.906;2023-11-21T06:50:31;11.30;99.90
42031;DHT22;27709;52.036;5.906;2023-11-21T06:52:56;11.30;99.90
42031;DHT22;27709;52.036;5.906;2023-11-21T06:55:22;11.30;99.90
42031;DHT22;27709;52.036;5.906;2023-11-21T06:57:47;11.30;99.90
42031;DHT22;27709;52.036;5.906;2023-11-21T07:00:18;11.30;99.90
42031;DHT22;27709;52.036;5.906;2023-11-21T07:02:44;11.30;99.90
42031;DHT22;27709;52.036;5.906;2023-11-21T07:05:13;11.30;99.90
42031;DHT22;27709;52.036;5.906;2023-11-21T07:07:39;11.30;99.90
42031;DHT22;27709;52.036;5.906;2023-11-21T07:10:05;11.30;99.90
42031;DHT22;27709;52.036;5.906;2023-11-21T07:12:31;11.30;99.90
42031;DHT22;27709;52.036;5.906;2023-11-21T07:14:57;11.30;99.90
42031;DHT22;27709;52.036;5.906;2023-11-21T07:17:23;11.30;99.90
42031;DHT22;27709;52.036;5.906;2023-11-21T07:19:49;11.30;99.90
42031;DHT22;27709;52.036;5.906;2023-11-21T07:22:15;11.30;99.90
42031;DHT22;27709;52.036;5.906;2023-11-21T07:24:48;11.30;99.90
42031;DHT22;27709;52.036;5.906;2023-11-21T07:27:14;11.40;99.90
42031;DHT22;27709;52.036;5.906;2023-11-21T07:29:39;11.40;99.90
42031;DHT22;27709;52.036;5.906;2023-11-21T07:32:06;11.40;99.90
42031;DHT22;27709;52.036;5.906;2023-11-21T07:34:31;11.30;99.90
42031;DHT22;27709;52.036;5.906;2023-11-21T07:36:57;11.40;99.90
42031;DHT22;27709;52.036;5.906;2023-11-21T07:39:22;11.40;99.90
42031;DHT22;27709;52.036;5.906;2023-11-21T07:41:48;11.40;99.90
42031;DHT22;27709;52.036;5.906;2023-11-21T07:44:14;11.40;99.90
42031;DHT22;27709;52.036;5.906;2023-11-21T07:46:41;11.40;99.90
42031;DHT22;27709;52.036;5.906;2023-11-21T07:49:06;11.40;99.90
42031;DHT22;27709;52.036;5.906;2023-11-21T07:51:32;11.50;99.90
42031;DHT22;27709;52.036;5.906;2023-11-21T07:53:57;11.50;99.90
42031;DHT22;27709;52.036;5.906;2023-11-21T07:56:23;11.50;99.90
42031;DHT22;27709;52.036;5.906;2023-11-21T07:58:48;11.50;99.90
42031;DHT22;27709;52.036;5.906;2023-11-21T08:01:15;11.60;99.90
42031;DHT22;27709;52.036;5.906;2023-11-21T08:03:40;11.60;99.90
42031;DHT22;27709;52.036;5.906;2023-11-21T08:06:06;11.60;99.90
42031;DHT22;27709;52.036;5.906;2023-11-21T08:08:33;11.70;99.90
42031;DHT22;27709;52.036;5.906;2023-11-21T08:10:58;11.60;99.90
42031;DHT22;27709;52.036;5.906;2023-11-21T08:13:26;11.70;99.90
42031;DHT22;27709;52.036;5.906;2023-11-21T08:15:56;11.70;99.90
42031;DHT22;27709;52.036;5.906;2023-11-21T08:18:23;11.70;99.90
42031;DHT22;27709;52.036;5.906;2023-11-21T08:20:49;11.70;99.90
42031;DHT22;27709;52.036;5.906;2023-11-21T08:23:18;11.80;99.90
42031;DHT22;27709;52.036;5.906;2023-11-21T08:25:44;11.80;99.90
42031;DHT22;27709;52.036;5.906;2023-11-21T08:28:09;11.80;99.90
42031;DHT22;27709;52.036;5.906;2023-11-21T08:30:35;11.80;99.90
42031;DHT22;27709;52.036;5.906;2023-11-21T08:33:01;11.90;99.90
42031;DHT22;27709;52.036;5.906;2023-11-21T08:35:28;11.90;99.90
42031;DHT22;27709;52.036;5.906;2023-11-21T08:37:54;11.90;99.90
42031;DHT22;27709;52.036;5.906;2023-11-21T08:40:20;12.00;99.90
42031;DHT22;27709;52.036;5.906;2023-11-21T08:42:47;12.00;99.90
42031;DHT22;27709;52.036;5.906;2023-11-21T08:45:14;12.00;99.90
42031;DHT22;27709;52.036;5.906;2023-11-21T08:47:39;12.00;99.90
42031;DHT22;27709;52.036;5.906;2023-11-21T08:50:06;12.10;99.90
42031;DHT22;27709;52.036;5.906;2023-11-21T08:52:34;12.10;99.90
42031;DHT22;27709;52.036;5.906;2023-11-21T08:55:00;12.20;99.90
42031;DHT22;27709;52.036;5.906;2023-11-21T08:57:44;12.20;99.90
42031;DHT22;27709;52.036;5.906;2023-11-21T09:00:16;12.20;99.90
42031;DHT22;27709;52.036;5.906;2023-11-21T09:02:43;12.10;99.90
42031;DHT22;27709;52.036;5.906;2023-11-21T09:05:11;12.10;99.90
42031;DHT22;27709;52.036;5.906;2023-11-21T09:07:39;12.20;99.90
42031;DHT22;27709;52.036;5.906;2023-11-21T09:10:06;12.20;99.90
42031;DHT22;27709;52.036;5.906;2023-11-21T09:12:34;12.10;99.90
42031;DHT22;27709;52.036;5.906;2023-11-21T09:15:19;12.20;99.90
42031;DHT22;27709;52.036;5.906;2023-11-21T09:18:25;12.20;99.90
42031;DHT22;27709;52.036;5.906;2023-11-21T09:23:34;12.10;99.90
42031;DHT22;27709;52.036;5.906;2023-11-21T09:26:00;12.10;99.90
42031;DHT22;27709;52.036;5.906;2023-11-21T09:28:26;12.10;99.90
42031;DHT22;27709;52.036;5.906;2023-11-21T09:30:53;12.20;99.90
42031;DHT22;27709;52.036;5.906;2023-11-21T09:33:19;12.20;99.90
42031;DHT22;27709;52.036;5.906;2023-11-21T09:35:44;12.20;99.90
42031;DHT22;27709;52.036;5.906;2023-11-21T09:38:10;12.30;99.90
42031;DHT22;27709;52.036;5.906;2023-11-21T09:40:37;12.40;99.90
42031;DHT22;27709;52.036;5.906;2023-11-21T09:43:07;12.40;99.90
42031;DHT22;27709;52.036;5.906;2023-11-21T09:45:39;12.50;99.90
42031;DHT22;27709;52.036;5.906;2023-11-21T09:48:05;12.50;99.90
42031;DHT22;27709;52.036;5.906;2023-11-21T09:50:32;12.50;99.90
42031;DHT22;27709;52.036;5.906;2023-11-21T09:55:36;12.70;99.90
42031;DHT22;27709;52.036;5.906;2023-11-21T09:58:03;12.80;99.90
42031;DHT22;27709;52.036;5.906;2023-11-21T10:00:30;12.90;99.90
42031;DHT22;27709;52.036;5.906;2023-11-21T10:02:58;13.00;99.90
42031;DHT22;27709;52.036;5.906;2023-11-21T10:05:25;13.00;99.90
42031;DHT22;27709;52.036;5.906;2023-11-21T10:07:51;13.00;99.90
42031;DHT22;27709;52.036;5.906;2023-11-21T10:10:19;13.00;99.90
42031;DHT22;27709;52.036;5.906;2023-11-21T10:12:50;12.90;99.90
42031;DHT22;27709;52.036;5.906;2023-11-21T10:15:21;12.90;99.90
42031;DHT22;27709;52.036;5.906;2023-11-21T10:17:49;12.90;99.90
42031;DHT22;27709;52.036;5.906;2023-11-21T10:20:16;12.90;99.90
42031;DHT22;27709;52.036;5.906;2023-11-21T10:22:43;12.90;99.90
42031;DHT22;27709;52.036;5.906;2023-11-21T10:25:09;12.90;99.90
42031;DHT22;27709;52.036;5.906;2023-11-21T10:27:36;12.80;99.90
42031;DHT22;27709;52.036;5.906;2023-11-21T10:30:05;12.90;99.90
42031;DHT22;27709;52.036;5.906;2023-11-21T10:32:31;12.80;99.90
42031;DHT22;27709;52.036;5.906;2023-11-21T10:35:00;12.80;99.90
42031;DHT22;27709;52.036;5.906;2023-11-21T10:37:27;12.80;99.90
42031;DHT22;27709;52.036;5.906;2023-11-21T10:39:59;12.80;99.90
42031;DHT22;27709;52.036;5.906;2023-11-21T10:42:25;12.90;99.90
42031;DHT22;27709;52.036;5.906;2023-11-21T10:44:53;13.00;99.90
42031;DHT22;27709;52.036;5.906;2023-11-21T10:47:19;12.90;99.90
42031;DHT22;27709;52.036;5.906;2023-11-21T10:49:48;12.90;99.90
42031;DHT22;27709;52.036;5.906;2023-11-21T10:52:14;12.90;99.90
42031;DHT22;27709;52.036;5.906;2023-11-21T10:54:43;12.90;99.90
42031;DHT22;27709;52.036;5.906;2023-11-21T10:59:50;12.80;99.90
42031;DHT22;27709;52.036;5.906;2023-11-21T11:02:26;12.80;99.90
42031;DHT22;27709;52.036;5.906;2023-11-21T11:05:23;12.80;99.90
42031;DHT22;27709;52.036;5.906;2023-11-21T11:07:56;12.70;99.90
42031;DHT22;27709;52.036;5.906;2023-11-21T11:10:26;12.70;99.90
42031;DHT22;27709;52.036;5.906;2023-11-21T11:12:53;12.70;99.90
42031;DHT22;27709;52.036;5.906;2023-11-21T11:15:21;12.80;99.90
42031;DHT22;27709;52.036;5.906;2023-11-21T11:17:48;12.70;99.90
42031;DHT22;27709;52.036;5.906;2023-11-21T11:20:16;12.70;99.90
42031;DHT22;27709;52.036;5.906;2023-11-21T11:23:11;12.80;99.90
42031;DHT22;27709;52.036;5.906;2023-11-21T11:28:20;12.90;99.90
42031;DHT22;27709;52.036;5.906;2023-11-21T11:33:47;12.80;99.90
42031;DHT22;27709;52.036;5.906;2023-11-21T11:36:28;12.70;99.90
42031;DHT22;27709;52.036;5.906;2023-11-21T11:38:55;12.60;99.90
42031;DHT22;27709;52.036;5.906;2023-11-21T11:41:40;12.60;99.90
42031;DHT22;27709;52.036;5.906;2023-11-21T11:47:32;12.60;99.90
42031;DHT22;27709;52.036;5.906;2023-11-21T11:50:23;12.60;99.90
42031;DHT22;27709;52.036;5.906;2023-11-21T11:52:53;12.70;99.90
42031;DHT22;27709;52.036;5.906;2023-11-21T11:55:24;12.80;99.90
42031;DHT22;27709;52.036;5.906;2023-11-21T11:57:54;12.90;99.90
42031;DHT22;27709;52.036;5.906;2023-11-21T12:02:54;12.90;99.90
42031;DHT22;27709;52.036;5.906;2023-11-21T12:05:21;12.80;99.90
42031;DHT22;27709;52.036;5.906;2023-11-21T12:07:53;12.80;99.90
42031;DHT22;27709;52.036;5.906;2023-11-21T12:10:21;12.90;99.90
42031;DHT22;27709;52.036;5.906;2023-11-21T12:12:49;12.90;99.90
42031;DHT22;27709;52.036;5.906;2023-11-21T12:15:16;12.90;99.90
42031;DHT22;27709;52.036;5.906;2023-11-21T12:17:42;12.80;99.90
42031;DHT22;27709;52.036;5.906;2023-11-21T12:20:09;12.80;99.90
42031;DHT22;27709;52.036;5.906;2023-11-21T12:22:50;12.80;99.90
42031;DHT22;27709;52.036;5.906;2023-11-21T12:25:17;12.80;99.90
42031;DHT22;27709;52.036;5.906;2023-11-21T12:27:49;12.80;99.90
42031;DHT22;27709;52.036;5.906;2023-11-21T12:30:16;12.80;99.90
42031;DHT22;27709;52.036;5.906;2023-11-21T12:32:43;12.80;99.90
42031;DHT22;27709;52.036;5.906;2023-11-21T12:35:10;12.80;99.90
42031;DHT22;27709;52.036;5.906;2023-11-21T12:37:42;12.80;99.90
42031;DHT22;27709;52.036;5.906;2023-11-21T12:40:09;12.80;99.90
42031;DHT22;27709;52.036;5.906;2023-11-21T12:42:41;12.80;99.90
42031;DHT22;27709;52.036;5.906;2023-11-21T12:47:54;12.70;99.90
42031;DHT22;27709;52.036;5.906;2023-11-21T12:50:21;12.70;99.90
42031;DHT22;27709;52.036;5.906;2023-11-21T12:52:52;12.70;99.90
42031;DHT22;27709;52.036;5.906;2023-11-21T12:55:20;12.70;99.90
42031;DHT22;27709;52.036;5.906;2023-11-21T12:57:53;12.70;99.90
42031;DHT22;27709;52.036;5.906;2023-11-21T13:00:31;12.60;99.90
42031;DHT22;27709;52.036;5.906;2023-11-21T13:02:58;12.60;99.90
42031;DHT22;27709;52.036;5.906;2023-11-21T13:05:35;12.60;99.90
42031;DHT22;27709;52.036;5.906;2023-11-21T13:08:04;12.60;99.90
42031;DHT22;27709;52.036;5.906;2023-11-21T13:13:12;12.60;99.90
42031;DHT22;27709;52.036;5.906;2023-11-21T13:15:48;12.60;99.90
42031;DHT22;27709;52.036;5.906;2023-11-21T13:18:14;12.60;99.90
42031;DHT22;27709;52.036;5.906;2023-11-21T13:20:41;12.60;99.90
42031;DHT22;27709;52.036;5.906;2023-11-21T13:23:09;12.70;99.90
42031;DHT22;27709;52.036;5.906;2023-11-21T13:25:37;12.70;99.90
42031;DHT22;27709;52.036;5.906;2023-11-21T13:28:04;12.70;99.90
42031;DHT22;27709;52.036;5.906;2023-11-21T13:30:30;12.70;99.90
42031;DHT22;27709;52.036;5.906;2023-11-21T13:33:02;12.80;99.90
42031;DHT22;27709;52.036;5.906;2023-11-21T13:35:32;12.80;99.90
42031;DHT22;27709;52.036;5.906;2023-11-21T13:38:17;12.90;99.90
42031;DHT22;27709;52.036;5.906;2023-11-21T13:40:48;13.00;99.90
42031;DHT22;27709;52.036;5.906;2023-11-21T13:43:18;12.90;99.90
42031;DHT22;27709;52.036;5.906;2023-11-21T13:45:46;12.90;99.90
42031;DHT22;27709;52.036;5.906;2023-11-21T13:48:13;12.80;99.90
42031;DHT22;27709;52.036;5.906;2023-11-21T13:50:47;12.80;99.90
42031;DHT22;27709;52.036;5.906;2023-11-21T13:53:27;12.70;99.90
42031;DHT22;27709;52.036;5.906;2023-11-21T13:55:56;12.50;99.90
42031;DHT22;27709;52.036;5.906;2023-11-21T13:58:23;12.50;99.90
42031;DHT22;27709;52.036;5.906;2023-11-21T14:01:05;12.40;99.90
42031;DHT22;27709;52.036;5.906;2023-11-21T14:03:38;12.30;99.90
42031;DHT22;27709;52.036;5.906;2023-11-21T14:06:15;12.20;99.90
42031;DHT22;27709;52.036;5.906;2023-11-21T14:08:48;12.20;99.90
42031;DHT22;27709;52.036;5.906;2023-11-21T14:11:13;12.10;99.90
42031;DHT22;27709;52.036;5.906;2023-11-21T14:13:43;12.00;99.90
42031;DHT22;27709;52.036;5.906;2023-11-21T14:16:14;12.00;99.90
42031;DHT22;27709;52.036;5.906;2023-11-21T14:18:40;11.90;99.90
42031;DHT22;27709;52.036;5.906;2023-11-21T14:21:18;12.00;99.90
42031;DHT22;27709;52.036;5.906;2023-11-21T14:23:44;12.00;99.90
42031;DHT22;27709;52.036;5.906;2023-11-21T14:26:11;12.10;99.90
42031;DHT22;27709;52.036;5.906;2023-11-21T14:28:39;12.10;99.90
42031;DHT22;27709;52.036;5.906;2023-11-21T14:31:05;12.10;99.90
42031;DHT22;27709;52.036;5.906;2023-11-21T14:33:30;12.10;99.90
42031;DHT22;27709;52.036;5.906;2023-11-21T14:35:56;12.20;99.90
42031;DHT22;27709;52.036;5.906;2023-11-21T14:38:23;12.20;99.90
42031;DHT22;27709;52.036;5.906;2023-11-21T14:40:48;12.20;99.90
42031;DHT22;27709;52.036;5.906;2023-11-21T14:43:14;12.20;99.90
42031;DHT22;27709;52.036;5.906;2023-11-21T14:45:41;12.10;99.90
42031;DHT22;27709;52.036;5.906;2023-11-21T14:48:06;12.00;99.90
42031;DHT22;27709;52.036;5.906;2023-11-21T14:50:40;12.00;99.90
42031;DHT22;27709;52.036;5.906;2023-11-21T14:53:28;12.00;99.90
42031;DHT22;27709;52.036;5.906;2023-11-21T14:56:19;11.80;99.90
42031;DHT22;27709;52.036;5.906;2023-11-21T14:58:52;11.80;99.90
42031;DHT22;27709;52.036;5.906;2023-11-21T15:01:18;11.70;99.90
42031;DHT22;27709;52.036;5.906;2023-11-21T15:03:56;11.70;99.90
42031;DHT22;27709;52.036;5.906;2023-11-21T15:06:23;11.60;99.90
42031;DHT22;27709;52.036;5.906;2023-11-21T15:08:53;11.50;99.90
42031;DHT22;27709;52.036;5.906;2023-11-21T15:11:35;11.40;99.90
42031;DHT22;27709;52.036;5.906;2023-11-21T15:14:02;11.40;99.90
42031;DHT22;27709;52.036;5.906;2023-11-21T15:16:32;11.30;99.90
42031;DHT22;27709;52.036;5.906;2023-11-21T15:18:58;11.30;99.90
42031;DHT22;27709;52.036;5.906;2023-11-21T15:21:24;11.20;99.90
42031;DHT22;27709;52.036;5.906;2023-11-21T15:23:51;11.20;99.90
42031;DHT22;27709;52.036;5.906;2023-11-21T15:26:17;11.20;99.90
42031;DHT22;27709;52.036;5.906;2023-11-21T15:28:43;11.20;99.90
42031;DHT22;27709;52.036;5.906;2023-11-21T15:31:08;11.10;99.90
42031;DHT22;27709;52.036;5.906;2023-11-21T15:33:34;11.10;99.90
42031;DHT22;27709;52.036;5.906;2023-11-21T15:36:02;11.10;99.90
42031;DHT22;27709;52.036;5.906;2023-11-21T15:38:29;11.10;99.90
42031;DHT22;27709;52.036;5.906;2023-11-21T15:40:55;11.10;99.90
42031;DHT22;27709;52.036;5.906;2023-11-21T15:43:20;11.10;99.90
42031;DHT22;27709;52.036;5.906;2023-11-21T15:45:46;11.00;99.90
42031;DHT22;27709;52.036;5.906;2023-11-21T15:48:12;11.00;99.90
42031;DHT22;27709;52.036;5.906;2023-11-21T15:50:38;11.10;99.90
42031;DHT22;27709;52.036;5.906;2023-11-21T15:53:03;11.00;99.90
42031;DHT22;27709;52.036;5.906;2023-11-21T15:55:30;10.90;99.90
42031;DHT22;27709;52.036;5.906;2023-11-21T15:57:57;10.80;99.90
42031;DHT22;27709;52.036;5.906;2023-11-21T16:00:23;10.70;99.90